createdAt,value
2022-10-05T00:02:20.667Z,77.77
2022-10-05T00:04:49.061Z,78.13
2022-10-05T00:07:18.658Z,78.02
2022-10-05T00:09:51.866Z,78.00
2022-10-05T00:12:20.980Z,77.65
2022-10-05T00:14:51.011Z,77.83
2022-10-05T00:17:22.571Z,77.89
2022-10-05T00:19:54.210Z,77.93
2022-10-05T00:22:28.917Z,78.18
2022-10-05T00:24:59.106Z,78.34
2022-10-05T00:27:32.261Z,78.56
2022-10-05T00:30:02.907Z,78.37
2022-10-05T00:32:29.709Z,78.70
2022-10-05T00:34:57.436Z,78.33
2022-10-05T00:37:24.306Z,78.47
2022-10-05T00:39:51.235Z,78.53
2022-10-05T00:42:44.313Z,78.50
2022-10-05T00:45:15.156Z,78.75
2022-10-05T00:47:43.599Z,78.86
2022-10-05T00:50:28.117Z,79.05
2022-10-05T00:52:58.521Z,79.04
2022-10-05T00:55:42.412Z,78.99
2022-10-05T00:58:28.531Z,79.21
2022-10-05T01:01:13.342Z,79.39
2022-10-05T01:03:59.494Z,79.92
2022-10-05T01:06:41.444Z,80.06
2022-10-05T01:09:13.517Z,80.36
2022-10-05T01:11:43.048Z,80.50
2022-10-05T01:14:22.109Z,80.48
2022-10-05T01:17:09.308Z,80.73
2022-10-05T01:19:49.580Z,81.37
2022-10-05T01:22:34.346Z,81.60
2022-10-05T01:25:18.153Z,82.37
2022-10-05T01:28:08.681Z,84.06
2022-10-05T01:31:01.643Z,85.25
2022-10-05T01:33:41.119Z,86.15
2022-10-05T01:36:15.283Z,85.46
2022-10-05T01:38:42.319Z,84.97
2022-10-05T01:41:23.032Z,84.70
2022-10-05T01:44:01.659Z,84.81
2022-10-05T01:46:31.254Z,85.81
2022-10-05T01:49:03.877Z,86.75
2022-10-05T01:52:02.142Z,87.34
2022-10-05T01:54:54.586Z,88.34
2022-10-05T01:57:37.565Z,89.14
2022-10-05T02:00:10.572Z,90.32
2022-10-05T02:02:52.093Z,90.44
2022-10-05T02:05:21.538Z,90.79
2022-10-05T02:07:55.053Z,90.91
2022-10-05T02:10:29.064Z,90.38
2022-10-05T02:13:04.904Z,90.56
2022-10-05T02:15:42.298Z,90.32
2022-10-05T02:18:18.329Z,90.60
2022-10-05T02:20:46.677Z,90.72
2022-10-05T02:23:21.155Z,90.58
2022-10-05T02:25:51.764Z,90.14
2022-10-05T02:28:28.247Z,89.92
2022-10-05T02:31:05.068Z,90.33
2022-10-05T02:33:33.649Z,89.61
2022-10-05T02:36:13.176Z,89.51
2022-10-05T02:38:55.815Z,89.32
2022-10-05T02:41:24.309Z,88.81
2022-10-05T02:44:24.231Z,89.03
2022-10-05T02:47:02.008Z,88.74
2022-10-05T02:49:32.482Z,88.74
2022-10-05T02:52:06.644Z,88.71
2022-10-05T02:54:41.156Z,88.98
2022-10-05T02:57:15.393Z,88.85
2022-10-05T02:59:55.403Z,88.59
2022-10-05T03:02:36.350Z,88.50
2022-10-05T03:05:18.348Z,88.22
2022-10-05T03:08:08.747Z,88.29
2022-10-05T03:10:55.314Z,87.84
2022-10-05T03:13:34.357Z,87.72
2022-10-05T03:16:13.067Z,86.73
2022-10-05T03:19:02.800Z,85.25
2022-10-05T03:21:52.781Z,83.96
2022-10-05T03:24:21.958Z,83.41
2022-10-05T03:27:04.477Z,83.68
2022-10-05T03:29:49.158Z,83.15
2022-10-05T03:32:51.354Z,82.85
2022-10-05T03:35:29.959Z,81.36
2022-10-05T03:38:08.347Z,80.92
2022-10-05T03:40:43.577Z,81.04
2022-10-05T03:43:30.105Z,82.01
2022-10-05T03:46:02.803Z,82.68
2022-10-05T03:48:36.213Z,83.20
2022-10-05T03:51:07.351Z,83.55
2022-10-05T03:53:48.073Z,83.23
2022-10-05T03:56:32.234Z,82.63
2022-10-05T03:59:19.313Z,82.14
2022-10-05T04:02:05.189Z,82.53
2022-10-05T04:04:47.155Z,82.93
2022-10-05T04:07:28.922Z,83.15
2022-10-05T04:09:57.681Z,83.72
2022-10-05T04:12:30.546Z,84.21
2022-10-05T04:15:03.816Z,84.74
2022-10-05T04:17:38.680Z,84.74
2022-10-05T04:20:25.013Z,84.71
2022-10-05T04:23:11.790Z,84.87
2022-10-05T04:25:48.746Z,85.43
2022-10-05T04:28:31.777Z,85.84
2022-10-05T04:31:02.971Z,86.27
2022-10-05T04:33:31.694Z,86.54
2022-10-05T04:36:30.000Z,86.94
2022-10-05T04:39:02.686Z,87.50
2022-10-05T04:41:33.080Z,87.92
2022-10-05T04:44:07.956Z,87.89
2022-10-05T04:46:42.976Z,88.44
2022-10-05T04:49:20.900Z,88.82
2022-10-05T04:51:54.163Z,88.42
2022-10-05T04:54:37.594Z,87.15
2022-10-05T04:57:12.102Z,86.22
2022-10-05T04:59:56.261Z,85.61
2022-10-05T05:02:39.189Z,85.91
2022-10-05T05:05:22.115Z,86.61
2022-10-05T05:08:02.021Z,87.08
2022-10-05T05:10:46.114Z,87.38
2022-10-05T05:13:35.540Z,87.29
2022-10-05T05:16:22.269Z,87.31
2022-10-05T05:18:58.461Z,87.46
2022-10-05T05:21:30.765Z,87.64
2022-10-05T05:24:03.130Z,88.05
2022-10-05T05:26:39.068Z,88.08
2022-10-05T05:29:25.304Z,88.29
2022-10-05T05:32:13.070Z,88.16
2022-10-05T05:34:45.411Z,88.00
2022-10-05T05:37:20.234Z,88.09
2022-10-05T05:40:13.319Z,88.51
2022-10-05T05:42:50.784Z,88.64
2022-10-05T05:45:41.216Z,89.04
2022-10-05T05:48:18.502Z,88.37
2022-10-05T05:50:56.533Z,88.60
2022-10-05T05:53:42.030Z,88.33
2022-10-05T05:56:31.066Z,87.95
2022-10-05T05:59:06.753Z,87.98
2022-10-05T06:01:44.173Z,88.09
2022-10-05T06:04:18.816Z,87.87
2022-10-05T06:06:51.273Z,87.72
2022-10-05T06:09:19.889Z,87.67
2022-10-05T06:11:57.195Z,87.52
2022-10-05T06:14:33.404Z,87.43
2022-10-05T06:17:10.501Z,87.20
2022-10-05T06:19:39.357Z,87.12
2022-10-05T06:22:16.668Z,86.71
2022-10-05T06:25:00.346Z,86.34
2022-10-05T06:27:37.386Z,85.79
2022-10-05T06:30:11.692Z,85.45
2022-10-05T06:32:53.825Z,85.05
2022-10-05T06:35:53.940Z,84.92
2022-10-05T06:38:46.604Z,84.24
2022-10-05T06:41:36.134Z,84.06
2022-10-05T06:44:28.260Z,83.31
2022-10-05T06:47:27.478Z,82.94
2022-10-05T06:50:25.840Z,82.89
2022-10-05T06:53:28.182Z,82.71
2022-10-05T06:56:15.452Z,81.47
2022-10-05T06:58:48.940Z,79.60
2022-10-05T07:01:22.310Z,77.57
2022-10-05T07:04:08.744Z,76.32
2022-10-05T07:06:49.958Z,76.13
2022-10-05T07:09:32.087Z,74.80
2022-10-05T07:12:18.647Z,74.33
2022-10-05T07:14:56.745Z,74.35
2022-10-05T07:17:54.973Z,73.13
2022-10-05T07:20:25.891Z,72.27
2022-10-05T07:23:24.724Z,72.38
2022-10-05T07:26:05.015Z,71.70
2022-10-05T07:28:41.276Z,70.04
2022-10-05T07:31:19.884Z,68.52
2022-10-05T07:33:58.977Z,67.86
2022-10-05T07:36:54.996Z,67.64
2022-10-05T07:39:59.578Z,64.80
2022-10-05T07:42:57.691Z,61.88
2022-10-05T07:45:39.729Z,58.46
2022-10-05T07:48:29.308Z,57.28
2022-10-05T07:51:06.783Z,56.15
2022-10-05T07:53:41.231Z,55.80
2022-10-05T07:56:22.119Z,55.34
2022-10-05T07:59:01.817Z,55.80
2022-10-05T08:01:34.412Z,53.70
2022-10-05T08:04:40.748Z,53.60
2022-10-05T08:07:15.891Z,52.92
2022-10-05T08:09:52.375Z,51.93
2022-10-05T08:12:31.939Z,51.46
2022-10-05T08:15:15.283Z,51.24
2022-10-05T08:17:50.241Z,52.04
2022-10-05T08:20:29.973Z,51.54
2022-10-05T08:23:05.413Z,51.32
2022-10-05T08:25:37.935Z,51.50
2022-10-05T08:28:26.265Z,52.46
2022-10-05T08:31:01.279Z,52.83
2022-10-05T08:33:34.512Z,51.90
2022-10-05T08:36:10.810Z,52.57
2022-10-05T08:38:38.370Z,52.67
2022-10-05T08:41:31.300Z,52.52
2022-10-05T08:44:14.848Z,53.48
2022-10-05T08:47:00.961Z,54.83
2022-10-05T08:49:57.237Z,53.39
2022-10-05T08:52:29.309Z,52.98
2022-10-05T08:55:03.494Z,51.87
2022-10-05T08:57:47.328Z,52.25
2022-10-05T09:00:20.239Z,52.05
2022-10-05T09:03:04.409Z,51.81
2022-10-05T09:06:02.527Z,52.69
2022-10-05T09:08:48.787Z,54.02
2022-10-05T09:11:24.324Z,53.65
2022-10-05T09:14:08.525Z,53.74
2022-10-05T09:17:06.649Z,54.26
2022-10-05T09:19:53.137Z,54.46
2022-10-05T09:22:39.000Z,55.23
2022-10-05T09:25:08.572Z,54.99
2022-10-05T09:27:38.908Z,55.50
2022-10-05T09:30:37.128Z,55.25
2022-10-05T09:33:25.781Z,56.33
2022-10-05T09:35:58.269Z,56.24
2022-10-05T09:38:56.865Z,56.30
2022-10-05T09:41:55.022Z,57.10
2022-10-05T09:44:37.814Z,57.40
2022-10-05T09:47:28.363Z,56.74
2022-10-05T09:50:14.573Z,56.24
2022-10-05T09:53:12.827Z,55.94
2022-10-05T09:55:46.869Z,55.74
2022-10-05T09:58:31.231Z,55.45
2022-10-05T10:01:09.471Z,55.97
2022-10-05T10:04:13.843Z,56.33
2022-10-05T10:06:56.753Z,55.96
2022-10-05T10:09:54.825Z,56.18
2022-10-05T10:12:28.639Z,57.27
2022-10-05T10:14:59.282Z,55.62
2022-10-05T10:17:45.902Z,55.85
2022-10-05T10:20:35.013Z,55.47
2022-10-05T10:23:22.526Z,55.42
2022-10-05T10:26:01.541Z,55.48
2022-10-05T10:28:52.406Z,54.97
2022-10-05T10:31:35.326Z,54.87
2022-10-05T10:34:04.401Z,52.32
2022-10-05T10:36:50.670Z,52.38
2022-10-05T10:39:33.988Z,52.75
2022-10-05T10:42:05.748Z,51.92
2022-10-05T10:44:49.848Z,52.04
2022-10-05T10:47:20.202Z,51.76
2022-10-05T10:50:18.617Z,52.67
2022-10-05T10:53:01.444Z,51.99
2022-10-05T10:55:59.013Z,51.56
2022-10-05T10:58:44.030Z,51.01
2022-10-05T11:01:26.776Z,51.74
2022-10-05T11:04:06.158Z,50.70
2022-10-05T11:06:52.040Z,51.22
2022-10-05T11:09:25.426Z,52.55
2022-10-05T11:12:13.882Z,50.72
2022-10-05T11:14:49.851Z,50.76
2022-10-05T11:17:47.956Z,50.15
2022-10-05T11:20:36.080Z,50.76
2022-10-05T11:23:17.100Z,50.66
2022-10-05T11:26:03.399Z,50.80
2022-10-05T11:28:57.662Z,51.32
2022-10-05T11:31:40.678Z,50.25
2022-10-05T11:34:23.655Z,50.76
2022-10-05T11:37:07.404Z,50.39
2022-10-05T11:40:05.619Z,50.56
2022-10-05T11:42:56.082Z,51.58
2022-10-05T11:45:40.171Z,51.63
2022-10-05T11:48:16.259Z,50.43
2022-10-05T11:50:53.510Z,49.65
2022-10-05T11:53:29.433Z,50.13
2022-10-05T11:56:08.798Z,49.64
2022-10-05T11:59:02.297Z,49.23
2022-10-05T12:01:38.138Z,49.65
2022-10-05T12:04:05.618Z,48.91
2022-10-05T12:06:45.964Z,49.13
2022-10-05T12:09:15.345Z,49.70
2022-10-05T12:11:47.557Z,48.78
2022-10-05T12:14:24.532Z,48.16
2022-10-05T12:17:00.883Z,48.25
2022-10-05T12:19:41.317Z,48.60
2022-10-05T12:22:33.286Z,48.26
2022-10-05T12:25:04.722Z,47.89
2022-10-05T12:27:38.111Z,47.43
2022-10-05T12:30:12.986Z,48.43
2022-10-05T12:32:50.911Z,47.75
2022-10-05T12:35:36.541Z,47.42
2022-10-05T12:38:19.935Z,46.67
2022-10-05T12:41:02.002Z,46.85
2022-10-05T12:43:45.677Z,46.54
2022-10-05T12:46:31.725Z,46.15
2022-10-05T12:49:29.677Z,47.25
2022-10-05T12:52:00.955Z,45.74
2022-10-05T12:54:37.502Z,46.97
2022-10-05T12:57:22.178Z,47.23
2022-10-05T12:59:50.480Z,45.92
2022-10-05T13:02:48.916Z,46.69
2022-10-05T13:05:26.321Z,47.91
2022-10-05T13:07:57.073Z,48.48
2022-10-05T13:10:45.773Z,49.21
2022-10-05T13:13:16.578Z,49.57
2022-10-05T13:15:53.699Z,50.02
2022-10-05T13:18:21.171Z,49.71
2022-10-05T13:21:04.612Z,49.30
2022-10-05T13:23:42.445Z,50.48
2022-10-05T13:26:17.904Z,49.83
2022-10-05T13:28:49.172Z,50.37
2022-10-05T13:31:24.975Z,50.52
2022-10-05T13:34:24.749Z,50.34
2022-10-05T13:37:08.551Z,50.81
2022-10-05T13:39:42.813Z,50.64
2022-10-05T13:42:17.875Z,50.95
2022-10-05T13:45:03.609Z,51.27
2022-10-05T13:47:58.025Z,52.01
2022-10-05T13:50:42.363Z,52.09
2022-10-05T13:53:24.100Z,52.53
2022-10-05T13:56:00.629Z,53.01
2022-10-05T13:58:33.351Z,52.75
2022-10-05T14:01:02.954Z,52.49
2022-10-05T14:03:34.989Z,52.63
2022-10-05T14:06:11.078Z,52.48
2022-10-05T14:08:51.210Z,50.56
2022-10-05T14:11:26.974Z,50.06
2022-10-05T14:14:13.568Z,49.71
2022-10-05T14:16:57.830Z,49.26
2022-10-05T14:19:31.107Z,49.54
2022-10-05T14:22:02.950Z,49.69
2022-10-05T14:24:49.695Z,49.57
2022-10-05T14:27:20.246Z,49.59
2022-10-05T14:29:57.010Z,49.20
2022-10-05T14:32:27.184Z,49.44
2022-10-05T14:35:13.019Z,50.20
2022-10-05T14:37:58.240Z,50.63
2022-10-05T14:40:30.820Z,50.17
2022-10-05T14:43:02.451Z,49.51
2022-10-05T14:45:30.542Z,49.52
2022-10-05T14:48:02.356Z,50.14
2022-10-05T14:50:31.584Z,50.39
2022-10-05T14:53:17.652Z,50.62
2022-10-05T14:56:01.565Z,50.98
2022-10-05T14:58:59.857Z,51.72
2022-10-05T15:01:31.016Z,52.11
2022-10-05T15:04:02.169Z,52.39
2022-10-05T15:07:05.409Z,52.44
2022-10-05T15:09:47.496Z,52.66
2022-10-05T15:12:22.490Z,53.66
2022-10-05T15:14:52.726Z,53.51
2022-10-05T15:17:28.555Z,53.76
2022-10-05T15:20:27.684Z,54.13
2022-10-05T15:23:04.805Z,54.45
2022-10-05T15:25:38.298Z,54.74
2022-10-05T15:28:10.128Z,55.25
2022-10-05T15:30:42.046Z,55.40
2022-10-05T15:33:30.047Z,55.68
2022-10-05T15:36:05.016Z,55.80
2022-10-05T15:38:51.364Z,56.27
2022-10-05T15:41:22.986Z,56.62
2022-10-05T15:43:59.687Z,57.11
2022-10-05T15:46:50.601Z,57.04
2022-10-05T15:49:26.456Z,56.96
2022-10-05T15:52:09.398Z,57.18
2022-10-05T15:55:07.830Z,57.54
2022-10-05T15:57:48.228Z,58.07
2022-10-05T16:00:19.155Z,58.48
2022-10-05T16:03:02.229Z,58.57
2022-10-05T16:05:50.261Z,58.87
2022-10-05T16:08:42.307Z,59.02
2022-10-05T16:11:21.450Z,59.61
2022-10-05T16:14:02.577Z,60.12
2022-10-05T16:16:42.310Z,60.14
2022-10-05T16:19:29.842Z,60.66
2022-10-05T16:22:12.263Z,60.78
2022-10-05T16:24:56.286Z,61.33
2022-10-05T16:27:52.749Z,61.67
2022-10-05T16:30:22.275Z,62.12
2022-10-05T16:33:02.589Z,62.35
2022-10-05T16:35:54.174Z,62.85
2022-10-05T16:38:40.606Z,63.92
2022-10-05T16:41:28.554Z,65.10
2022-10-05T16:44:05.943Z,66.04
2022-10-05T16:46:45.596Z,66.51
2022-10-05T16:49:26.123Z,66.84
2022-10-05T16:51:59.324Z,67.43
2022-10-05T16:54:32.533Z,67.67
2022-10-05T16:57:18.863Z,68.14
2022-10-05T16:59:54.705Z,68.81
2022-10-05T17:02:37.768Z,69.12
2022-10-05T17:05:36.604Z,69.58
2022-10-05T17:08:11.338Z,69.54
2022-10-05T17:10:38.605Z,69.97
2022-10-05T17:13:21.370Z,70.14
2022-10-05T17:16:04.226Z,70.15
2022-10-05T17:18:47.645Z,70.34
2022-10-05T17:21:46.012Z,69.84
2022-10-05T17:24:22.217Z,70.22
2022-10-05T17:27:20.419Z,70.77
2022-10-05T17:29:51.493Z,71.32
2022-10-05T17:32:19.075Z,71.84
2022-10-05T17:35:01.675Z,72.33
2022-10-05T17:37:36.506Z,72.79
2022-10-05T17:40:34.562Z,73.11
2022-10-05T17:43:33.263Z,73.83
2022-10-05T17:46:02.260Z,73.72
2022-10-05T17:48:54.261Z,73.28
2022-10-05T17:51:44.571Z,73.62
2022-10-05T17:54:34.156Z,74.18
2022-10-05T17:57:03.078Z,74.14
2022-10-05T17:59:53.248Z,74.23
2022-10-05T18:02:22.185Z,74.71
2022-10-05T18:05:02.204Z,75.54
2022-10-05T18:07:29.132Z,75.96
2022-10-05T18:09:59.000Z,76.10
2022-10-05T18:12:39.168Z,76.06
2022-10-05T18:15:07.622Z,76.28
2022-10-05T18:17:40.623Z,75.92
2022-10-05T18:20:24.482Z,75.70
2022-10-05T18:22:53.800Z,75.96
2022-10-05T18:25:26.307Z,76.18
2022-10-05T18:28:10.158Z,76.41
2022-10-05T18:31:09.132Z,76.41
2022-10-05T18:33:53.117Z,76.18
2022-10-05T18:36:37.922Z,76.13
2022-10-05T18:39:17.947Z,75.97
2022-10-05T18:42:11.859Z,76.43
2022-10-05T18:44:45.353Z,76.68
2022-10-05T18:47:19.187Z,77.06
2022-10-05T18:50:02.235Z,77.26
2022-10-05T18:52:45.116Z,77.57
2022-10-05T18:55:28.864Z,77.63
2022-10-05T18:58:05.575Z,77.83
2022-10-05T19:00:51.626Z,78.07
2022-10-05T19:03:28.552Z,78.29
2022-10-05T19:06:13.481Z,78.30
2022-10-05T19:08:50.072Z,78.26
2022-10-05T19:11:30.021Z,78.32
2022-10-05T19:14:08.173Z,78.52
2022-10-05T19:16:49.915Z,78.55
2022-10-05T19:19:30.772Z,78.89
2022-10-05T19:22:06.602Z,78.65
2022-10-05T19:24:40.834Z,78.54
2022-10-05T19:27:14.415Z,78.65
2022-10-05T19:29:57.279Z,78.34
2022-10-05T19:32:57.526Z,78.69
2022-10-05T19:35:33.513Z,78.43
2022-10-05T19:38:16.025Z,78.22
2022-10-05T19:41:14.190Z,78.24
2022-10-05T19:44:12.530Z,77.82
2022-10-05T19:46:39.970Z,77.96
2022-10-05T19:49:10.391Z,77.98
2022-10-05T19:51:50.071Z,77.80
2022-10-05T19:54:29.986Z,77.66
2022-10-05T19:56:59.823Z,77.57
2022-10-05T19:59:31.501Z,77.61
2022-10-05T20:01:59.514Z,77.47
2022-10-05T20:04:43.470Z,77.30
2022-10-05T20:07:17.184Z,77.34
2022-10-05T20:10:14.894Z,77.13
2022-10-05T20:12:50.903Z,77.12
2022-10-05T20:15:36.979Z,77.05
2022-10-05T20:18:50.986Z,76.89
2022-10-05T20:21:36.407Z,76.58
2022-10-05T20:24:20.544Z,76.71
2022-10-05T20:27:10.448Z,76.69
2022-10-05T20:29:41.599Z,76.86
2022-10-05T20:32:12.652Z,76.87
2022-10-05T20:34:42.163Z,77.00
2022-10-05T20:37:11.614Z,76.81
2022-10-05T20:39:39.134Z,76.93
2022-10-05T20:42:07.822Z,76.73
2022-10-05T20:44:35.730Z,76.53
2022-10-05T20:47:03.061Z,76.66
2022-10-05T20:49:32.569Z,76.34
2022-10-05T20:51:59.416Z,76.51
2022-10-05T20:54:27.302Z,76.54
2022-10-05T20:56:55.905Z,76.45
2022-10-05T20:59:24.540Z,76.65
2022-10-05T21:01:52.253Z,76.50
2022-10-05T21:04:21.815Z,76.22
2022-10-05T21:07:05.543Z,76.32
2022-10-05T21:09:32.830Z,76.08
2022-10-05T21:11:59.625Z,76.21
2022-10-05T21:14:30.624Z,76.02
2022-10-05T21:16:57.377Z,76.25
2022-10-05T21:19:24.190Z,76.09
2022-10-05T21:21:51.007Z,76.20
2022-10-05T21:24:17.732Z,76.25
2022-10-05T21:26:45.616Z,75.94
2022-10-05T21:29:13.373Z,76.15
2022-10-05T21:31:41.186Z,76.01
2022-10-05T21:34:08.734Z,76.21
2022-10-05T21:36:35.459Z,75.88
2022-10-05T21:39:02.304Z,76.01
2022-10-05T21:41:29.126Z,75.84
2022-10-05T21:43:55.945Z,75.82
2022-10-05T21:46:26.410Z,75.92
2022-10-05T21:48:54.900Z,76.08
2022-10-05T21:51:25.374Z,76.30
2022-10-05T21:53:57.003Z,76.41
2022-10-05T21:56:29.034Z,76.37
2022-10-05T21:58:56.004Z,76.31
2022-10-05T22:01:23.223Z,76.38
2022-10-05T22:03:50.234Z,76.71
2022-10-05T22:06:16.975Z,76.73
2022-10-05T22:08:43.770Z,76.84
2022-10-05T22:11:14.826Z,77.00
2022-10-05T22:13:46.035Z,77.26
2022-10-05T22:16:14.420Z,77.88
2022-10-05T22:18:43.015Z,78.07
2022-10-05T22:21:12.262Z,78.12
2022-10-05T22:23:41.072Z,78.05
2022-10-05T22:26:11.159Z,78.29
2022-10-05T22:28:39.834Z,78.32
2022-10-05T22:31:09.719Z,78.37
2022-10-05T22:33:37.310Z,78.22
2022-10-05T22:36:05.274Z,78.15
2022-10-05T22:38:32.429Z,77.86
2022-10-05T22:40:59.240Z,77.82
2022-10-05T22:43:27.138Z,77.81
2022-10-05T22:45:54.721Z,77.68
2022-10-05T22:48:21.543Z,77.57
2022-10-05T22:50:48.987Z,77.62
2022-10-05T22:53:15.896Z,77.66
2022-10-05T22:55:42.695Z,77.88
2022-10-05T22:58:09.844Z,78.32
2022-10-05T23:00:56.919Z,78.52
2022-10-05T23:03:23.422Z,79.09
2022-10-05T23:05:56.644Z,79.32
2022-10-05T23:08:23.437Z,80.04
2022-10-05T23:10:50.235Z,80.15
2022-10-05T23:13:17.019Z,80.27
2022-10-05T23:15:44.661Z,80.16
2022-10-05T23:18:12.293Z,80.46
2022-10-05T23:20:40.751Z,80.52
2022-10-05T23:23:07.510Z,80.55
2022-10-05T23:25:34.578Z,80.19
2022-10-05T23:28:02.795Z,80.19
2022-10-05T23:30:29.746Z,80.53
2022-10-05T23:32:56.654Z,80.79
2022-10-05T23:35:23.383Z,81.05
2022-10-05T23:37:50.123Z,81.36
2022-10-05T23:40:16.873Z,81.86
2022-10-05T23:42:43.648Z,82.96
2022-10-05T23:45:11.946Z,84.07
2022-10-05T23:47:39.946Z,84.93
2022-10-05T23:50:08.339Z,85.79
2022-10-05T23:52:36.045Z,86.31
2022-10-05T23:55:04.581Z,86.16
2022-10-05T23:57:32.389Z,86.12
